Time;durP1;ratioP1;P1;durP2;ratioP2;P2;SDS_P1;SDS_P2;PMS_P1;PMS_P2;Temp;Humidity;BMP_temperature;BMP_pressure;BME280_temperature;BME280_humidity;BME280_pressure;Samples;Min_cycle;Max_cycle;Signal;HPM_P1;HPM_P2
2022/01/13 00:01:21;;;;;;;9.97;6.27;;;0.10;99.90;;;;;;5076353;28;20458;-72
2022/01/13 00:03:49;;;;;;;7.37;3.70;;;0.10;99.90;;;;;;5076352;28;20439;-72
2022/01/13 00:06:16;;;;;;;9.70;4.30;;;0.20;99.90;;;;;;5076178;28;20528;-72
2022/01/13 00:08:43;;;;;;;10.03;5.33;;;0.30;99.90;;;;;;5076112;28;20487;-72
2022/01/13 00:11:10;;;;;;;8.07;3.80;;;0.30;99.90;;;;;;5075961;28;20541;-73
2022/01/13 00:13:47;;;;;;;8.87;3.07;;;0.40;99.90;;;;;;5075798;28;20508;-72
2022/01/13 00:16:36;;;;;;;10.93;4.73;;;0.40;99.90;;;;;;5075572;28;20550;-72
2022/01/13 00:19:18;;;;;;;8.10;4.43;;;0.50;99.90;;;;;;5076180;28;20541;-72
2022/01/13 00:21:51;;;;;;;10.47;4.07;;;0.30;99.90;;;;;;5076267;28;20966;-72
2022/01/13 00:24:18;;;;;;;12.43;3.80;;;0.30;99.90;;;;;;5076127;28;20446;-72
2022/01/13 00:26:46;;;;;;;9.83;4.77;;;0.20;99.90;;;;;;5075659;28;20501;-72
2022/01/13 00:29:19;;;;;;;7.10;4.90;;;0.20;99.90;;;;;;5075744;28;20904;-72
2022/01/13 00:31:46;;;;;;;7.90;4.07;;;0.20;99.90;;;;;;5076168;28;20524;-72
2022/01/13 00:34:15;;;;;;;11.37;4.33;;;0.10;99.90;;;;;;5078532;28;20900;-72
2022/01/13 00:36:42;;;;;;;10.20;5.10;;;0.10;99.90;;;;;;5080718;28;20458;-72
2022/01/13 00:39:11;;;;;;;8.13;6.23;;;0.10;99.90;;;;;;5080490;28;20540;-72
2022/01/13 00:41:38;;;;;;;9.70;5.53;;;0.20;99.90;;;;;;5080076;28;20474;-72
2022/01/13 00:44:06;;;;;;;7.73;4.70;;;0.30;99.90;;;;;;5079720;28;21084;-72
2022/01/13 00:46:42;;;;;;;16.10;4.27;;;0.30;99.90;;;;;;5079923;28;20576;-72
2022/01/13 00:49:09;;;;;;;12.33;5.83;;;0.20;99.90;;;;;;5079152;28;20841;-72
2022/01/13 00:51:39;;;;;;;8.20;4.67;;;0.00;99.90;;;;;;5079026;28;20834;-72
2022/01/13 00:54:07;;;;;;;12.93;5.40;;;0.10;99.90;;;;;;5079392;28;20433;-72
2022/01/13 00:56:35;;;;;;;7.47;2.90;;;0.00;99.90;;;;;;5079803;28;20557;-72
2022/01/13 00:59:03;;;;;;;10.93;5.43;;;0.00;99.90;;;;;;5079015;28;20542;-72
2022/01/13 01:01:32;;;;;;;9.40;3.83;;;0.00;99.90;;;;;;5079225;28;20832;-72
2022/01/13 01:03:59;;;;;;;13.40;6.90;;;0.00;99.90;;;;;;5079911;28;20477;-72
2022/01/13 01:06:26;;;;;;;11.47;3.93;;;0.10;99.90;;;;;;5079722;28;20482;-71
2022/01/13 01:08:54;;;;;;;12.50;4.67;;;0.10;99.90;;;;;;5079821;28;20486;-72
2022/01/13 01:11:24;;;;;;;13.50;3.73;;;0.20;99.90;;;;;;5079229;28;20454;-72
2022/01/13 01:13:52;;;;;;;10.00;4.73;;;0.20;99.90;;;;;;5079834;28;20450;-72
2022/01/13 01:16:19;;;;;;;13.40;6.20;;;0.10;99.90;;;;;;5079694;28;20459;-72
2022/01/13 01:18:54;;;;;;;8.20;4.37;;;0.10;99.90;;;;;;5079564;28;20496;-72
2022/01/13 01:24:29;;;;;;;9.57;5.97;;;0.20;99.90;;;;;;5079511;28;20437;-73
2022/01/13 01:27:01;;;;;;;12.77;5.00;;;0.20;99.90;;;;;;5079489;28;20462;-72
2022/01/13 01:29:34;;;;;;;9.90;5.03;;;0.20;99.90;;;;;;5080049;28;20457;-72
2022/01/13 01:32:05;;;;;;;14.00;4.10;;;0.20;99.90;;;;;;5079546;28;20811;-73
2022/01/13 01:34:52;;;;;;;13.70;5.23;;;0.30;99.90;;;;;;5079224;28;20537;-72
2022/01/13 01:37:19;;;;;;;7.57;4.37;;;0.30;99.90;;;;;;5079673;28;20461;-73
2022/01/13 01:39:50;;;;;;;8.83;3.87;;;0.30;99.90;;;;;;5077012;28;20748;-72
2022/01/13 01:42:19;;;;;;;8.37;4.33;;;0.20;99.90;;;;;;5077816;28;20490;-72
2022/01/13 01:44:48;;;;;;;8.73;4.70;;;0.10;99.90;;;;;;5077688;28;20744;-72
2022/01/13 01:47:17;;;;;;;13.60;5.07;;;0.10;99.90;;;;;;5077876;28;20465;-72
2022/01/13 01:49:47;;;;;;;7.77;5.03;;;0.10;99.90;;;;;;5078707;28;20447;-72
2022/01/13 01:52:19;;;;;;;10.57;4.60;;;0.10;99.90;;;;;;5078565;28;20455;-73
2022/01/13 01:54:49;;;;;;;8.77;4.97;;;0.10;99.90;;;;;;5078861;28;20450;-72
2022/01/13 01:57:18;;;;;;;8.87;4.30;;;0.20;99.90;;;;;;5078990;28;20450;-72
2022/01/13 01:59:45;;;;;;;9.70;4.30;;;0.20;99.90;;;;;;5078798;28;20446;-72
2022/01/13 02:02:14;;;;;;;14.37;4.70;;;0.30;99.90;;;;;;5078921;28;20461;-72
2022/01/13 02:04:41;;;;;;;11.47;5.97;;;0.30;99.90;;;;;;5078187;28;20893;-72
2022/01/13 02:07:10;;;;;;;7.67;4.63;;;0.40;99.90;;;;;;5078525;28;20455;-72
2022/01/13 02:09:41;;;;;;;10.67;4.63;;;0.50;99.90;;;;;;5078484;28;20522;-72
2022/01/13 02:12:15;;;;;;;12.37;5.53;;;0.50;99.90;;;;;;5078652;28;20504;-72
2022/01/13 02:14:56;;;;;;;10.93;5.10;;;0.50;99.90;;;;;;5078682;28;20452;-72
2022/01/13 02:17:26;;;;;;;5.67;3.80;;;0.40;99.90;;;;;;5079233;28;20687;-72
2022/01/13 02:19:54;;;;;;;9.53;5.03;;;0.50;99.90;;;;;;5078288;28;20516;-72
2022/01/13 02:22:24;;;;;;;8.70;5.10;;;0.40;99.90;;;;;;5078322;28;20478;-72
2022/01/13 02:24:51;;;;;;;10.40;3.80;;;0.40;99.90;;;;;;5077468;28;20447;-72
2022/01/13 02:27:18;;;;;;;9.40;3.97;;;0.40;99.90;;;;;;5077853;28;20498;-72
2022/01/13 02:29:45;;;;;;;11.17;3.60;;;0.30;99.90;;;;;;5077314;28;20442;-72
2022/01/13 02:32:12;;;;;;;8.83;5.07;;;0.20;99.90;;;;;;5077087;28;20454;-72
2022/01/13 02:34:39;;;;;;;8.90;3.63;;;0.30;99.90;;;;;;5077255;28;20447;-72
2022/01/13 02:37:06;;;;;;;12.10;7.07;;;0.30;99.90;;;;;;5077997;28;20480;-72
2022/01/13 02:39:35;;;;;;;9.03;5.33;;;0.30;99.90;;;;;;5077922;28;20474;-72
2022/01/13 02:42:04;;;;;;;7.33;4.90;;;0.40;99.90;;;;;;5077642;28;20847;-72
2022/01/13 02:44:31;;;;;;;5.77;3.80;;;0.30;99.90;;;;;;5077768;28;20472;-72
2022/01/13 02:47:21;;;;;;;6.63;4.57;;;0.20;99.90;;;;;;5077820;28;20494;-72
2022/01/13 02:49:49;;;;;;;16.30;4.40;;;0.10;99.90;;;;;;5078041;28;20455;-72
2022/01/13 02:52:16;;;;;;;10.40;5.37;;;0.10;99.90;;;;;;5077774;28;20458;-72
2022/01/13 02:54:44;;;;;;;8.67;4.23;;;0.10;99.90;;;;;;5077636;28;20466;-72
2022/01/13 02:57:11;;;;;;;8.50;5.70;;;0.10;99.90;;;;;;5076779;28;20457;-72
2022/01/13 02:59:38;;;;;;;15.40;6.03;;;0.00;99.90;;;;;;5077824;28;20490;-72
2022/01/13 03:02:05;;;;;;;9.40;4.67;;;0.00;99.90;;;;;;5077501;28;20463;-71
2022/01/13 03:04:32;;;;;;;7.40;3.37;;;0.00;99.90;;;;;;5077440;28;20434;-71
2022/01/13 03:07:00;;;;;;;7.97;4.17;;;0.00;99.90;;;;;;5077255;28;20486;-72
2022/01/13 03:09:27;;;;;;;9.20;4.80;;;-0.10;99.90;;;;;;5077667;28;20500;-71
2022/01/13 03:11:55;;;;;;;12.73;4.73;;;-0.20;99.90;;;;;;5076359;28;20451;-72
2022/01/13 03:14:22;;;;;;;7.33;3.20;;;-0.20;99.90;;;;;;5076555;28;20886;-72
2022/01/13 03:16:49;;;;;;;9.83;4.87;;;-0.20;99.90;;;;;;5076640;28;20527;-71
2022/01/13 03:19:16;;;;;;;17.30;7.23;;;-0.30;99.90;;;;;;5076678;28;20462;-72
2022/01/13 03:21:43;;;;;;;8.70;4.63;;;-0.30;99.90;;;;;;5076759;28;20788;-72
2022/01/13 03:24:11;;;;;;;8.30;3.90;;;-0.20;99.90;;;;;;5077228;28;20486;-71
2022/01/13 03:26:39;;;;;;;13.03;4.83;;;-0.20;99.90;;;;;;5076872;28;20490;-72
2022/01/13 03:29:17;;;;;;;14.10;5.07;;;-0.20;99.90;;;;;;5077232;28;20446;-71
2022/01/13 03:31:45;;;;;;;7.63;3.93;;;-0.10;99.90;;;;;;5077468;28;20465;-72
2022/01/13 03:34:13;;;;;;;11.23;3.63;;;0.00;99.90;;;;;;5076852;28;20546;-72
2022/01/13 03:36:40;;;;;;;10.27;5.70;;;0.00;99.90;;;;;;5076797;28;20808;-72
2022/01/13 03:39:09;;;;;;;9.57;5.60;;;-0.10;99.90;;;;;;5076822;28;20512;-72
2022/01/13 03:41:38;;;;;;;9.13;5.27;;;-0.10;99.90;;;;;;5076217;28;20509;-72
2022/01/13 03:44:16;;;;;;;13.30;4.90;;;-0.10;99.90;;;;;;5076710;28;20500;-72
2022/01/13 03:46:43;;;;;;;10.30;3.87;;;-0.10;99.90;;;;;;5076767;28;20512;-72
2022/01/13 03:49:10;;;;;;;9.77;5.10;;;0.00;99.90;;;;;;5077441;28;20805;-72
2022/01/13 03:52:29;;;;;;;8.77;4.87;;;0.00;99.90;;;;;;5077142;28;20454;-72
2022/01/13 03:55:36;;;;;;;9.50;4.80;;;0.00;99.90;;;;;;5033766;28;20511;-72
2022/01/13 03:58:39;;;;;;;6.37;3.63;;;0.10;99.90;;;;;;5053822;28;20896;-73
2022/01/13 04:01:51;;;;;;;7.97;4.07;;;0.10;99.90;;;;;;5077892;28;20454;-73
2022/01/13 04:04:19;;;;;;;5.40;3.20;;;0.30;99.90;;;;;;5078091;28;20496;-73
2022/01/13 04:06:47;;;;;;;7.83;3.20;;;0.30;99.90;;;;;;5077747;28;20509;-74
2022/01/13 04:10:13;;;;;;;10.30;4.67;;;0.20;99.90;;;;;;5081441;28;20744;-73
2022/01/13 04:12:40;;;;;;;8.30;3.57;;;0.20;99.90;;;;;;5080937;28;20551;-72
2022/01/13 04:15:12;;;;;;;9.33;3.83;;;0.20;99.90;;;;;;5080361;28;20445;-72
2022/01/13 04:17:39;;;;;;;7.37;3.10;;;0.20;99.90;;;;;;5080738;28;20839;-72
2022/01/13 04:20:09;;;;;;;12.20;5.60;;;0.20;99.90;;;;;;5080248;28;20796;-72
2022/01/13 04:22:36;;;;;;;12.30;6.67;;;0.30;99.90;;;;;;5080913;28;20464;-73
2022/01/13 04:25:06;;;;;;;6.73;3.90;;;0.30;99.90;;;;;;5079917;28;20470;-72
2022/01/13 04:27:37;;;;;;;9.80;3.17;;;0.40;99.90;;;;;;5080503;28;20573;-72
2022/01/13 04:30:33;;;;;;;6.57;3.43;;;0.40;99.90;;;;;;5081040;28;20454;-71
2022/01/13 04:33:02;;;;;;;8.53;3.30;;;0.40;99.90;;;;;;5080929;28;20460;-72
2022/01/13 04:35:30;;;;;;;11.50;5.00;;;0.40;99.90;;;;;;5079971;28;20472;-72
2022/01/13 04:37:57;;;;;;;8.10;4.00;;;0.40;99.90;;;;;;5080678;28;20880;-72
2022/01/13 04:40:25;;;;;;;7.60;2.77;;;0.40;99.90;;;;;;5080219;28;20482;-72
2022/01/13 04:42:55;;;;;;;6.53;2.77;;;0.40;99.90;;;;;;5079764;28;20514;-72
2022/01/13 04:45:26;;;;;;;6.17;3.00;;;0.50;99.90;;;;;;5079931;28;20457;-73
2022/01/13 04:47:56;;;;;;;12.87;4.40;;;0.40;99.90;;;;;;5079847;28;20486;-73
2022/01/13 04:50:24;;;;;;;18.90;5.43;;;0.40;99.90;;;;;;5080118;28;20450;-73
2022/01/13 04:52:52;;;;;;;6.60;3.40;;;0.40;99.90;;;;;;5078828;28;20446;-73
2022/01/13 04:55:24;;;;;;;11.27;5.40;;;0.30;99.90;;;;;;5079802;28;20749;-72
2022/01/13 04:57:52;;;;;;;7.30;3.60;;;0.40;99.90;;;;;;5079283;28;20446;-73
2022/01/13 05:00:20;;;;;;;8.13;3.50;;;0.50;99.90;;;;;;5079510;28;20751;-73
2022/01/13 05:02:46;;;;;;;7.83;4.50;;;0.50;99.90;;;;;;5079953;28;20446;-73
2022/01/13 05:05:13;;;;;;;10.50;4.70;;;0.60;99.90;;;;;;5079837;28;20481;-73
2022/01/13 05:07:41;;;;;;;12.00;4.10;;;0.70;99.90;;;;;;5079682;28;20936;-73
2022/01/13 05:10:10;;;;;;;11.93;5.40;;;0.80;99.90;;;;;;5079792;28;20465;-73
2022/01/13 05:12:41;;;;;;;9.77;4.33;;;0.90;99.90;;;;;;5080013;28;20446;-72
2022/01/13 05:15:12;;;;;;;9.90;4.13;;;0.90;99.90;;;;;;5080239;28;20553;-73
2022/01/13 05:18:02;;;;;;;9.57;5.27;;;0.80;99.90;;;;;;5079586;28;20446;-73
2022/01/13 05:20:38;;;;;;;11.30;4.70;;;0.70;99.90;;;;;;5078594;28;20455;-73
2022/01/13 05:23:07;;;;;;;16.07;7.00;;;0.60;99.90;;;;;;5079283;28;20785;-73
2022/01/13 05:25:36;;;;;;;8.03;5.60;;;0.50;99.90;;;;;;5079436;28;20431;-73
2022/01/13 05:28:03;;;;;;;17.47;5.33;;;0.40;99.90;;;;;;5079106;28;20577;-73
2022/01/13 05:30:30;;;;;;;12.33;5.30;;;0.40;99.90;;;;;;5079217;28;20538;-71
2022/01/13 05:32:57;;;;;;;12.80;5.23;;;0.40;99.90;;;;;;5078926;28;20518;-72
2022/01/13 05:35:25;;;;;;;9.90;5.50;;;0.60;99.90;;;;;;5078498;28;20431;-71
2022/01/13 05:37:53;;;;;;;11.13;4.67;;;0.70;99.90;;;;;;5078808;28;20454;-73
2022/01/13 05:40:20;;;;;;;9.50;5.90;;;0.80;99.90;;;;;;5078815;28;20846;-73
2022/01/13 05:42:48;;;;;;;8.17;4.00;;;0.80;99.90;;;;;;5078539;28;20486;-73
2022/01/13 05:45:17;;;;;;;8.90;3.80;;;0.80;99.90;;;;;;5078386;28;20885;-73
2022/01/13 05:47:45;;;;;;;11.90;6.53;;;0.90;99.90;;;;;;5079185;28;20752;-72
2022/01/13 05:50:14;;;;;;;11.63;6.07;;;1.00;99.90;;;;;;5079126;28;20517;-73
2022/01/13 05:52:41;;;;;;;15.57;5.47;;;1.10;99.90;;;;;;5079446;28;20437;-73
2022/01/13 05:55:09;;;;;;;9.70;5.13;;;1.30;99.90;;;;;;5078674;28;20561;-72
2022/01/13 05:57:36;;;;;;;6.07;4.57;;;1.30;99.90;;;;;;5077576;28;20454;-73
2022/01/13 06:00:05;;;;;;;14.50;7.10;;;1.40;99.90;;;;;;5078616;28;20545;-73
2022/01/13 06:02:32;;;;;;;10.37;5.63;;;1.50;99.90;;;;;;5078010;28;20446;-72
2022/01/13 06:04:59;;;;;;;8.47;5.10;;;1.40;99.90;;;;;;5078585;28;20838;-72
2022/01/13 06:07:26;;;;;;;11.40;5.17;;;1.40;99.90;;;;;;5078413;28;20493;-72
2022/01/13 06:09:53;;;;;;;8.53;4.43;;;1.30;99.90;;;;;;5078406;28;20614;-72
2022/01/13 06:12:31;;;;;;;11.10;4.77;;;1.30;99.90;;;;;;5078114;28;20534;-74
2022/01/13 06:14:59;;;;;;;8.80;4.47;;;1.30;99.90;;;;;;5078445;28;20901;-74
2022/01/13 06:17:33;;;;;;;10.90;4.50;;;1.20;99.90;;;;;;5077462;28;20446;-73
2022/01/13 06:20:00;;;;;;;8.97;3.97;;;1.10;99.90;;;;;;5077756;28;20500;-73
2022/01/13 06:22:27;;;;;;;9.27;3.40;;;1.20;99.90;;;;;;5077959;28;20453;-73
2022/01/13 06:24:55;;;;;;;8.00;3.87;;;1.10;99.90;;;;;;5077056;28;20490;-72
2022/01/13 06:27:23;;;;;;;8.17;3.93;;;1.00;99.90;;;;;;5077539;28;20782;-72
2022/01/13 06:29:51;;;;;;;6.17;2.87;;;0.90;99.90;;;;;;5077154;28;20450;-73
2022/01/13 06:32:22;;;;;;;10.23;5.50;;;0.90;99.90;;;;;;5077196;28;20460;-73
2022/01/13 06:34:54;;;;;;;12.67;5.93;;;0.80;99.90;;;;;;5077494;28;20508;-73
2022/01/13 06:37:21;;;;;;;8.60;3.87;;;0.90;99.90;;;;;;5078162;28;20447;-73
2022/01/13 06:39:51;;;;;;;9.50;5.37;;;0.90;99.90;;;;;;5077498;28;20899;-74
2022/01/13 06:42:18;;;;;;;10.63;3.87;;;0.90;99.90;;;;;;5077063;28;20560;-72
2022/01/13 06:44:48;;;;;;;9.27;4.80;;;0.90;99.90;;;;;;5077077;28;20469;-73
2022/01/13 06:47:16;;;;;;;5.23;2.20;;;0.90;99.90;;;;;;5076410;28;20482;-73
2022/01/13 06:49:43;;;;;;;8.03;3.50;;;0.90;99.90;;;;;;5075808;28;20450;-73
2022/01/13 06:52:14;;;;;;;8.70;3.73;;;0.80;99.90;;;;;;5076803;28;20446;-72
2022/01/13 06:54:41;;;;;;;8.17;3.20;;;0.70;99.90;;;;;;5077998;28;20455;-72
2022/01/13 06:57:10;;;;;;;8.50;4.00;;;0.70;99.90;;;;;;5076721;28;20904;-73
2022/01/13 06:59:42;;;;;;;8.00;4.20;;;0.60;99.90;;;;;;5076768;28;20951;-72
2022/01/13 07:02:13;;;;;;;10.10;5.03;;;0.60;99.90;;;;;;5076925;28;20821;-72
2022/01/13 07:04:43;;;;;;;13.73;5.10;;;0.70;99.90;;;;;;5077984;28;20878;-73
2022/01/13 07:07:16;;;;;;;7.00;3.20;;;0.60;99.90;;;;;;5077060;28;20478;-72
2022/01/13 07:09:43;;;;;;;10.13;4.57;;;0.60;99.90;;;;;;5077254;28;20533;-72
2022/01/13 07:12:11;;;;;;;6.37;3.60;;;0.70;99.90;;;;;;5076980;28;20450;-72
2022/01/13 07:14:38;;;;;;;13.03;6.07;;;0.80;99.90;;;;;;5076293;28;20444;-73
2022/01/13 07:17:05;;;;;;;7.80;5.90;;;0.80;99.90;;;;;;5077233;28;20439;-73
2022/01/13 07:19:32;;;;;;;12.83;6.90;;;0.90;99.90;;;;;;5077584;28;20458;-73
2022/01/13 07:21:59;;;;;;;10.07;5.13;;;0.90;99.90;;;;;;5076820;28;20449;-72
2022/01/13 07:24:28;;;;;;;7.83;4.63;;;0.90;99.90;;;;;;5075841;28;20545;-72
2022/01/13 07:26:58;;;;;;;11.70;5.37;;;1.20;99.90;;;;;;5076483;28;21024;-74
2022/01/13 07:29:29;;;;;;;10.53;4.10;;;1.60;99.90;;;;;;5076331;28;20498;-74
2022/01/13 07:31:59;;;;;;;6.07;3.90;;;2.20;99.90;;;;;;5077053;28;20779;-75
2022/01/13 07:34:30;;;;;;;10.90;4.63;;;2.50;99.90;;;;;;5076456;28;20553;-74
2022/01/13 07:36:57;;;;;;;11.70;6.83;;;3.20;99.90;;;;;;5073962;28;21132;-74
2022/01/13 07:39:24;;;;;;;11.67;5.10;;;3.10;99.90;;;;;;5074457;28;20549;-73
2022/01/13 07:41:56;;;;;;;12.70;6.27;;;2.50;99.90;;;;;;5074612;28;20474;-73
2022/01/13 07:44:24;;;;;;;10.80;5.07;;;2.10;99.90;;;;;;5075604;28;20485;-73
2022/01/13 07:46:50;;;;;;;9.83;5.13;;;1.80;99.90;;;;;;5076406;28;20494;-73
2022/01/13 07:49:19;;;;;;;9.50;5.77;;;1.60;99.90;;;;;;5075172;28;20443;-75
2022/01/13 07:51:49;;;;;;;8.47;4.23;;;1.40;99.90;;;;;;5075167;28;20496;-75
2022/01/13 07:54:16;;;;;;;17.53;6.43;;;1.50;99.90;;;;;;5074852;28;21063;-73
2022/01/13 07:56:44;;;;;;;12.03;5.00;;;1.90;99.90;;;;;;5071820;28;21077;-73
2022/01/13 07:59:12;;;;;;;14.77;5.50;;;2.20;99.90;;;;;;5073242;28;20504;-73
2022/01/13 08:01:39;;;;;;;11.90;6.70;;;2.10;99.90;;;;;;5073493;28;20448;-73
2022/01/13 08:04:07;;;;;;;6.40;3.10;;;1.80;99.90;;;;;;5074415;28;20458;-73
2022/01/13 08:06:37;;;;;;;6.60;3.47;;;1.60;99.90;;;;;;5074746;28;20741;-73
2022/01/13 08:09:07;;;;;;;9.20;4.17;;;1.40;99.90;;;;;;5074599;28;20458;-74
2022/01/13 08:11:35;;;;;;;7.33;2.53;;;1.20;99.90;;;;;;5075345;28;20442;-74
2022/01/13 08:14:02;;;;;;;9.37;2.83;;;1.10;99.90;;;;;;5073774;28;20460;-74
2022/01/13 08:16:37;;;;;;;11.90;3.63;;;1.10;99.90;;;;;;5075298;28;20454;-74
2022/01/13 08:22:03;;;;;;;4.37;1.80;;;1.10;99.90;;;;;;5075097;28;20781;-74
2022/01/13 08:24:38;;;;;;;5.03;1.47;;;1.00;99.90;;;;;;5074068;28;20496;-75
2022/01/13 08:27:06;;;;;;;14.13;8.30;;;1.00;99.90;;;;;;5075454;28;20920;-75
2022/01/13 08:29:36;;;;;;;11.33;3.73;;;1.00;99.90;;;;;;5073945;28;20452;-75
2022/01/13 08:32:27;;;;;;;5.40;1.90;;;1.00;99.90;;;;;;5074434;28;20447;-75
2022/01/13 08:34:55;;;;;;;5.60;2.53;;;0.90;99.90;;;;;;5075457;28;20873;-74
2022/01/13 08:37:25;;;;;;;4.83;2.00;;;0.80;99.90;;;;;;5076452;28;20768;-73
2022/01/13 08:39:55;;;;;;;6.13;1.30;;;0.80;99.90;;;;;;5076438;28;20446;-74
2022/01/13 08:42:25;;;;;;;2.73;1.40;;;0.80;99.90;;;;;;5074708;28;20482;-73
2022/01/13 08:45:00;;;;;;;3.20;1.10;;;0.80;99.90;;;;;;5074563;28;20774;-73
2022/01/13 08:47:29;;;;;;;4.00;1.70;;;0.80;99.90;;;;;;5074061;28;20845;-73
2022/01/13 08:49:56;;;;;;;6.30;2.47;;;0.90;99.90;;;;;;5075488;28;20489;-73
2022/01/13 08:52:27;;;;;;;3.33;1.10;;;0.90;99.90;;;;;;5075764;28;20477;-74
2022/01/13 08:54:55;;;;;;;3.43;1.60;;;1.40;99.90;;;;;;5077197;28;20533;-75
2022/01/13 08:57:27;;;;;;;3.50;1.47;;;1.80;99.90;;;;;;5079234;28;20464;-73
2022/01/13 08:59:54;;;;;;;7.37;2.63;;;2.60;99.90;;;;;;5077116;28;20482;-75
2022/01/13 09:02:24;;;;;;;5.57;2.37;;;2.80;99.90;;;;;;5080131;28;20450;-74
2022/01/13 09:04:53;;;;;;;4.87;1.90;;;2.70;99.90;;;;;;5079713;28;20454;-74
2022/01/13 09:07:21;;;;;;;3.23;1.67;;;2.20;99.90;;;;;;5079614;28;20501;-74
2022/01/13 09:09:50;;;;;;;8.97;2.30;;;2.10;99.90;;;;;;5079408;28;20756;-74
2022/01/13 09:12:17;;;;;;;4.50;1.63;;;2.50;99.90;;;;;;5079422;28;20603;-74
2022/01/13 09:14:46;;;;;;;5.60;2.30;;;2.70;99.90;;;;;;5079475;28;20434;-74
2022/01/13 09:17:21;;;;;;;6.13;1.40;;;3.20;99.90;;;;;;5043474;28;20728;-73
2022/01/13 09:19:48;;;;;;;4.73;1.63;;;3.50;99.90;;;;;;5058390;28;20455;-73
2022/01/13 09:22:26;;;;;;;4.47;1.47;;;3.90;99.90;;;;;;5059552;28;20510;-73
2022/01/13 09:24:56;;;;;;;3.53;1.80;;;3.80;99.90;;;;;;5078437;28;20454;-75
2022/01/13 09:27:24;;;;;;;7.50;3.70;;;4.10;99.90;;;;;;5078853;28;20597;-74
2022/01/13 09:29:51;;;;;;;10.50;3.87;;;4.10;99.90;;;;;;5078582;28;20502;-73
2022/01/13 09:32:22;;;;;;;6.00;3.20;;;3.80;99.90;;;;;;5076495;28;20909;-72
2022/01/13 09:34:52;;;;;;;7.83;2.63;;;3.30;99.90;;;;;;5078101;28;20457;-72
2022/01/13 09:37:36;;;;;;;9.70;4.00;;;2.60;99.90;;;;;;5078252;28;20948;-72
2022/01/13 09:40:15;;;;;;;8.20;3.50;;;2.00;99.90;;;;;;5040493;28;20754;-72
2022/01/13 09:42:46;;;;;;;6.23;4.47;;;1.80;99.90;;;;;;5071381;28;20889;-72
2022/01/13 09:45:19;;;;;;;8.10;3.30;;;1.60;99.90;;;;;;5078071;28;20482;-72
2022/01/13 09:47:55;;;;;;;5.90;2.47;;;1.40;99.90;;;;;;5058465;28;20482;-74
2022/01/13 09:50:27;;;;;;;4.43;2.10;;;1.20;99.90;;;;;;5040330;28;20443;-72
2022/01/13 09:52:59;;;;;;;7.10;2.70;;;1.30;99.90;;;;;;5059320;28;20879;-72
2022/01/13 09:58:39;;;;;;;9.10;2.73;;;1.30;99.90;;;;;;5078722;28;20443;-73
2022/01/13 10:01:09;;;;;;;9.97;3.90;;;1.30;99.90;;;;;;5080285;28;20457;-72
2022/01/13 10:03:56;;;;;;;7.03;2.43;;;1.20;99.90;;;;;;5061531;28;20482;-73
2022/01/13 10:06:57;;;;;;;9.13;3.53;;;1.70;99.90;;;;;;5078265;28;20533;-73
2022/01/13 10:09:54;;;;;;;4.40;2.87;;;1.60;99.90;;;;;;5078298;28;20492;-72
2022/01/13 10:12:26;;;;;;;8.70;2.57;;;1.50;99.90;;;;;;5077643;28;20500;-72
2022/01/13 10:17:48;;;;;;;5.73;2.30;;;1.40;99.90;;;;;;5076957;28;20419;-72
2022/01/13 10:20:20;;;;;;;5.77;2.70;;;1.50;99.90;;;;;;5077841;28;20556;-72
2022/01/13 10:22:51;;;;;;;9.47;3.40;;;1.80;99.90;;;;;;5077770;28;20435;-72
2022/01/13 10:25:40;;;;;;;5.13;2.60;;;2.00;99.90;;;;;;5078023;28;20561;-72
2022/01/13 10:28:19;;;;;;;6.47;3.50;;;2.10;99.90;;;;;;5077496;28;20565;-72
2022/01/13 10:30:48;;;;;;;6.40;2.83;;;2.00;99.90;;;;;;5078373;28;20537;-73
2022/01/13 10:33:25;;;;;;;6.60;2.53;;;2.20;99.90;;;;;;5075999;28;20552;-73
2022/01/13 10:35:55;;;;;;;6.67;3.33;;;2.40;99.90;;;;;;5076354;28;20493;-72
2022/01/13 10:38:24;;;;;;;10.70;3.00;;;2.40;99.90;;;;;;5057641;28;20870;-74
2022/01/13 10:41:17;;;;;;;4.80;2.57;;;2.70;99.90;;;;;;5076708;28;21030;-73
2022/01/13 10:44:21;;;;;;;7.10;3.83;;;3.30;99.90;;;;;;5078881;28;20512;-72
2022/01/13 10:47:00;;;;;;;5.50;3.20;;;3.30;99.90;;;;;;5075508;28;20519;-69
2022/01/13 10:49:32;;;;;;;7.60;2.67;;;3.00;99.90;;;;;;5075628;28;20482;-68
2022/01/13 10:52:26;;;;;;;5.30;2.03;;;3.00;99.90;;;;;;5074765;28;20447;-70
2022/01/13 10:55:03;;;;;;;6.37;2.13;;;3.00;99.90;;;;;;5057485;28;20589;-69
2022/01/13 10:57:53;;;;;;;8.87;2.67;;;3.40;99.90;;;;;;5075147;28;20477;-69
2022/01/13 11:00:25;;;;;;;6.80;2.20;;;4.10;99.90;;;;;;5075032;28;20997;-69
2022/01/13 11:03:07;;;;;;;5.00;2.23;;;3.90;99.90;;;;;;5056152;28;20472;-69
2022/01/13 11:05:44;;;;;;;4.07;1.33;;;3.90;99.90;;;;;;5057443;28;20431;-70
2022/01/13 11:08:11;;;;;;;4.10;1.60;;;4.50;99.90;;;;;;5074472;28;20576;-69
2022/01/13 11:10:49;;;;;;;9.00;2.30;;;4.80;99.90;;;;;;5073217;28;20427;-70
2022/01/13 11:13:19;;;;;;;5.93;2.53;;;4.60;99.90;;;;;;5073110;28;20417;-69
2022/01/13 11:15:55;;;;;;;4.97;2.47;;;4.60;99.90;;;;;;5072421;28;20431;-70
2022/01/13 11:18:26;;;;;;;5.13;2.23;;;4.90;99.90;;;;;;5073437;28;20420;-70
2022/01/13 11:20:54;;;;;;;3.63;2.33;;;5.10;99.90;;;;;;5072875;28;20425;-70
2022/01/13 11:23:26;;;;;;;5.33;2.90;;;5.40;99.90;;;;;;5074979;28;20460;-71
2022/01/13 11:25:59;;;;;;;6.90;3.00;;;5.50;99.90;;;;;;5073727;28;20474;-70
2022/01/13 11:28:26;;;;;;;8.00;2.70;;;4.80;99.90;;;;;;5074270;28;20465;-69
2022/01/13 11:30:54;;;;;;;6.20;2.27;;;4.80;99.90;;;;;;5074137;28;20453;-69
2022/01/13 11:33:40;;;;;;;3.10;1.63;;;4.80;99.90;;;;;;5074921;28;20921;-70
2022/01/13 11:36:20;;;;;;;4.80;2.10;;;4.60;99.90;;;;;;5052344;28;20782;-70
2022/01/13 11:38:57;;;;;;;4.27;3.30;;;4.50;99.90;;;;;;5055807;28;20458;-70
2022/01/13 11:41:36;;;;;;;5.10;2.53;;;4.80;99.90;;;;;;5055152;28;20443;-70
2022/01/13 11:44:13;;;;;;;3.63;1.77;;;5.20;99.90;;;;;;5054348;28;20447;-70
2022/01/13 11:46:48;;;;;;;9.37;3.83;;;5.40;99.90;;;;;;5055826;28;20455;-70
2022/01/13 11:49:20;;;;;;;8.20;3.00;;;5.00;99.90;;;;;;5055350;28;20467;-70
2022/01/13 11:51:57;;;;;;;9.97;3.83;;;4.90;99.90;;;;;;5055697;28;20455;-69
2022/01/13 11:54:31;;;;;;;5.90;3.53;;;5.00;99.90;;;;;;5054479;28;20460;-69
2022/01/13 11:57:16;;;;;;;6.83;3.10;;;5.00;99.90;;;;;;5055305;28;20451;-68
2022/01/13 12:00:21;;;;;;;8.47;4.23;;;4.80;99.90;;;;;;5054917;28;20422;-68
2022/01/13 12:02:57;;;;;;;7.57;2.53;;;4.90;99.90;;;;;;5043220;28;20449;-69
2022/01/13 12:05:30;;;;;;;4.17;2.30;;;4.60;99.90;;;;;;5055432;28;20426;-69
2022/01/13 12:08:02;;;;;;;3.83;1.80;;;4.70;99.90;;;;;;5055090;28;20821;-69
2022/01/13 12:10:52;;;;;;;8.77;4.20;;;5.00;99.90;;;;;;5053811;28;20862;-70
2022/01/13 12:13:37;;;;;;;10.63;4.30;;;5.40;99.90;;;;;;5070480;28;20446;-69
2022/01/13 12:16:09;;;;;;;10.10;3.60;;;5.40;99.90;;;;;;5072670;28;20920;-68
2022/01/13 12:19:08;;;;;;;9.87;3.80;;;5.40;99.90;;;;;;5071607;28;20525;-70
2022/01/13 12:21:40;;;;;;;9.90;4.00;;;5.30;99.90;;;;;;5071521;28;20454;-69
2022/01/13 12:24:18;;;;;;;7.60;3.50;;;5.60;99.90;;;;;;5072823;28;20450;-69
2022/01/13 12:26:52;;;;;;;7.07;2.40;;;5.80;99.90;;;;;;5071946;28;20960;-69
2022/01/13 12:29:22;;;;;;;7.43;3.67;;;6.00;99.90;;;;;;5075466;28;20576;-70
2022/01/13 12:31:54;;;;;;;8.63;3.80;;;5.80;99.90;;;;;;5077518;28;20454;-71
2022/01/13 12:34:48;;;;;;;5.63;3.00;;;5.50;99.90;;;;;;5076792;28;20488;-70
2022/01/13 12:37:36;;;;;;;4.40;1.80;;;5.60;99.90;;;;;;5077770;28;20462;-71
2022/01/13 12:40:15;;;;;;;10.00;4.20;;;5.80;99.90;;;;;;5075106;28;20549;-70
2022/01/13 12:42:54;;;;;;;8.33;3.93;;;5.40;99.90;;;;;;5076388;28;20417;-71
2022/01/13 12:45:37;;;;;;;6.50;3.30;;;5.10;99.90;;;;;;5075415;28;20792;-71
2022/01/13 12:48:16;;;;;;;6.97;2.93;;;5.00;99.90;;;;;;5074997;28;20797;-70
2022/01/13 12:50:50;;;;;;;8.13;2.77;;;5.20;99.90;;;;;;5074733;28;20540;-70
2022/01/13 12:53:23;;;;;;;4.97;2.23;;;5.30;99.90;;;;;;5074718;28;20454;-70
2022/01/13 12:55:55;;;;;;;8.40;4.23;;;5.60;99.90;;;;;;5075098;28;20424;-71
2022/01/13 12:58:23;;;;;;;8.73;3.83;;;5.80;99.90;;;;;;5075947;28;20557;-70
2022/01/13 13:00:51;;;;;;;7.90;3.87;;;5.80;99.90;;;;;;5076632;28;20427;-70
2022/01/13 13:03:18;;;;;;;5.77;2.73;;;5.70;99.90;;;;;;5076591;28;20496;-70
2022/01/13 13:05:50;;;;;;;5.53;2.30;;;5.70;99.90;;;;;;5075898;28;20438;-71
2022/01/13 13:08:21;;;;;;;6.10;3.60;;;5.80;99.90;;;;;;5076110;28;21001;-70
2022/01/13 13:10:50;;;;;;;4.90;2.30;;;5.60;99.90;;;;;;5075752;28;20496;-70
2022/01/13 13:13:19;;;;;;;4.27;2.10;;;5.40;99.90;;;;;;5073221;28;20456;-70
2022/01/13 13:15:54;;;;;;;9.20;2.73;;;5.20;99.90;;;;;;5074402;28;20457;-69
2022/01/13 13:18:24;;;;;;;9.40;3.33;;;4.90;99.90;;;;;;5074365;28;20448;-69
2022/01/13 13:20:53;;;;;;;7.03;3.63;;;4.90;99.90;;;;;;5073866;28;21096;-69
2022/01/13 13:23:31;;;;;;;6.60;2.80;;;4.90;99.90;;;;;;5076649;28;20571;-69
2022/01/13 13:26:05;;;;;;;5.83;2.90;;;4.90;99.90;;;;;;5077298;28;20521;-69
2022/01/13 13:28:36;;;;;;;10.63;2.33;;;4.80;99.90;;;;;;5076037;28;20696;-69
2022/01/13 13:31:12;;;;;;;4.47;2.03;;;4.70;99.90;;;;;;5074732;28;20735;-69